Time;durP1;ratioP1;P1;durP2;ratioP2;P2;SDS_P1;SDS_P2;PMS_P1;PMS_P2;Temp;Humidity;BMP_temperature;BMP_pressure;BME280_temperature;BME280_humidity;BME280_pressure;Samples;Min_cycle;Max_cycle;Signal;HPM_P1;HPM_P2
2024/01/11 00:01:59;;;;;;;;;;;;;;;;;;5180164;28;19932;-59
2024/01/11 00:04:30;;;;;;;;;;;;;;;;;;5166104;28;20380;-59
2024/01/11 00:07:01;;;;;;;;;;;;;;;;;;5144671;28;19922;-59
2024/01/11 00:09:32;;;;;;;;;;;;;;;;;;5159652;28;19926;-59
2024/01/11 00:12:04;;;;;;;;;;;;;;;;;;5159691;28;20400;-59
2024/01/11 00:14:35;;;;;;;;;;;;;;;;;;5158378;28;20052;-58
2024/01/11 00:17:06;;;;;;;;;;;;;;;;;;5159249;28;19938;-59
2024/01/11 00:19:37;;;;;;;;;;;;;;;;;;5172734;28;19922;-59
2024/01/11 00:22:08;;;;;;;;;;;;;;;;;;5159761;28;19922;-60
2024/01/11 00:24:40;;;;;;;;;;;;;;;;;;5159302;28;19922;-59
2024/01/11 00:27:11;;;;;;;;;;;;;;;;;;5160631;28;20311;-59
2024/01/11 00:29:42;;;;;;;;;;;;;;;;;;5179368;28;19926;-60
2024/01/11 00:32:13;;;;;;;;;;;;;;;;;;5179082;28;20419;-59
2024/01/11 00:34:44;;;;;;;;;;;;;;;;;;5179116;28;19926;-60
2024/01/11 00:37:15;;;;;;;;;;;;;;;;;;5179247;28;19921;-59
2024/01/11 00:39:46;;;;;;;;;;;;;;;;;;5178700;28;20003;-59
2024/01/11 00:42:17;;;;;;;;;;;;;;;;;;5175054;28;19926;-58
2024/01/11 00:44:49;;;;;;;;;;;;;;;;;;5179196;28;19964;-58
2024/01/11 00:47:20;;;;;;;;;;;;;;;;;;5179341;28;20041;-57
2024/01/11 00:49:51;;;;;;;;;;;;;;;;;;5179005;28;20141;-57
2024/01/11 00:52:22;;;;;;;;;;;;;;;;;;5178826;28;20019;-58
2024/01/11 00:54:53;;;;;;;;;;;;;;;;;;5177446;28;20017;-58
2024/01/11 00:57:24;;;;;;;;;;;;;;;;;;5166493;28;19926;-57
2024/01/11 00:59:55;;;;;;;;;;;;;;;;;;5158672;28;20026;-57
2024/01/11 01:02:26;;;;;;;;;;;;;;;;;;5142599;28;20455;-57
2024/01/11 01:04:57;;;;;;;;;;;;;;;;;;5142888;28;20361;-57
2024/01/11 01:07:28;;;;;;;;;;;;;;;;;;5163707;28;19925;-56
2024/01/11 01:09:59;;;;;;;;;;;;;;;;;;5162516;28;20374;-56
2024/01/11 01:12:30;;;;;;;;;;;;;;;;;;5158705;28;20000;-58
2024/01/11 01:15:01;;;;;;;;;;;;;;;;;;5169288;28;19922;-60
2024/01/11 01:17:32;;;;;;;;;;;;;;;;;;5171130;28;19922;-59
2024/01/11 01:20:03;;;;;;;;;;;;;;;;;;5158274;28;20436;-60
2024/01/11 01:22:34;;;;;;;;;;;;;;;;;;5172318;28;20439;-59
2024/01/11 01:25:05;;;;;;;;;;;;;;;;;;5158947;28;19966;-59
2024/01/11 01:27:36;;;;;;;;;;;;;;;;;;5159736;28;19922;-60
2024/01/11 01:30:08;;;;;;;;;;;;;;;;;;5176701;28;20308;-59
2024/01/11 01:32:39;;;;;;;;;;;;;;;;;;5164964;28;20412;-59
2024/01/11 01:35:10;;;;;;;;;;;;;;;;;;5158124;28;19973;-59
2024/01/11 01:37:41;;;;;;;;;;;;;;;;;;5141969;28;20389;-59
2024/01/11 01:40:12;;;;;;;;;;;;;;;;;;5174353;28;20052;-58
2024/01/11 01:42:46;;;;;;;;;;;;;;;;;;5178656;28;20017;-58
2024/01/11 01:45:17;;;;;;;;;;;;;;;;;;5177723;28;19929;-58
2024/01/11 01:47:48;;;;;;;;;;;;;;;;;;5174058;28;19976;-58
2024/01/11 01:50:20;;;;;;;;;;;;;;;;;;5142405;28;19930;-59
2024/01/11 01:52:51;;;;;;;;;;;;;;;;;;5157872;28;19958;-60
2024/01/11 01:55:22;;;;;;;;;;;;;;;;;;5142213;28;19945;-60
2024/01/11 01:57:53;;;;;;;;;;;;;;;;;;5157792;28;19926;-60
2024/01/11 02:00:24;;;;;;;;;;;;;;;;;;5158339;28;20254;-60
2024/01/11 02:02:55;;;;;;;;;;;;;;;;;;5157993;28;19922;-60
2024/01/11 02:05:26;;;;;;;;;;;;;;;;;;5141595;28;20294;-60
2024/01/11 02:07:57;;;;;;;;;;;;;;;;;;5141626;28;20004;-59
2024/01/11 02:10:28;;;;;;;;;;;;;;;;;;5164500;28;20019;-59
2024/01/11 02:12:59;;;;;;;;;;;;;;;;;;5177913;28;20063;-59
2024/01/11 02:15:30;;;;;;;;;;;;;;;;;;5178286;28;19921;-57
2024/01/11 02:18:01;;;;;;;;;;;;;;;;;;5176473;28;19925;-57
2024/01/11 02:20:32;;;;;;;;;;;;;;;;;;5178068;28;19917;-57
2024/01/11 02:23:03;;;;;;;;;;;;;;;;;;5170951;28;20021;-57
2024/01/11 02:25:34;;;;;;;;;;;;;;;;;;5177784;28;19940;-57
2024/01/11 02:28:05;;;;;;;;;;;;;;;;;;5163861;28;19926;-57
2024/01/11 02:30:36;;;;;;;;;;;;;;;;;;5161781;28;20013;-57
2024/01/11 02:33:07;;;;;;;;;;;;;;;;;;5176181;28;20398;-57
2024/01/11 02:35:39;;;;;;;;;;;;;;;;;;5177933;28;20222;-56
2024/01/11 02:38:10;;;;;;;;;;;;;;;;;;5165936;28;20001;-57
2024/01/11 02:40:41;;;;;;;;;;;;;;;;;;5180410;28;20350;-56
2024/01/11 02:43:12;;;;;;;;;;;;;;;;;;5181534;28;19926;-56
2024/01/11 02:45:43;;;;;;;;;;;;;;;;;;5165727;28;19981;-56
2024/01/11 02:48:14;;;;;;;;;;;;;;;;;;5170625;28;20373;-58
2024/01/11 02:50:45;;;;;;;;;;;;;;;;;;5145340;28;19941;-56
2024/01/11 02:53:16;;;;;;;;;;;;;;;;;;5144731;28;19922;-57
2024/01/11 02:55:47;;;;;;;;;;;;;;;;;;5161318;28;20265;-57
2024/01/11 02:58:18;;;;;;;;;;;;;;;;;;5170520;28;19922;-57
2024/01/11 03:00:49;;;;;;;;;;;;;;;;;;5161001;28;19929;-57
2024/01/11 03:03:20;;;;;;;;;;;;;;;;;;5160903;28;19922;-57
2024/01/11 03:05:51;;;;;;;;;;;;;;;;;;5160794;28;19933;-56
2024/01/11 03:08:22;;;;;;;;;;;;;;;;;;5160843;28;19930;-57
2024/01/11 03:10:53;;;;;;;;;;;;;;;;;;5180592;28;19973;-57
2024/01/11 03:13:24;;;;;;;;;;;;;;;;;;5181178;28;19984;-56
2024/01/11 03:15:55;;;;;;;;;;;;;;;;;;5180783;28;19926;-56
2024/01/11 03:18:26;;;;;;;;;;;;;;;;;;5180408;28;20330;-56
2024/01/11 03:20:57;;;;;;;;;;;;;;;;;;5180957;28;19929;-57
2024/01/11 03:23:28;;;;;;;;;;;;;;;;;;5180662;28;19976;-57
2024/01/11 03:25:59;;;;;;;;;;;;;;;;;;5180681;28;19934;-58
2024/01/11 03:28:31;;;;;;;;;;;;;;;;;;5180493;28;20275;-57
2024/01/11 03:31:02;;;;;;;;;;;;;;;;;;5180671;28;20338;-58
2024/01/11 03:33:33;;;;;;;;;;;;;;;;;;5180679;28;19984;-57
2024/01/11 03:36:04;;;;;;;;;;;;;;;;;;5180525;28;20345;-57
2024/01/11 03:38:35;;;;;;;;;;;;;;;;;;5179941;28;19929;-56
2024/01/11 03:41:06;;;;;;;;;;;;;;;;;;5180731;28;19929;-56
2024/01/11 03:43:37;;;;;;;;;;;;;;;;;;5180449;28;19922;-56
2024/01/11 03:46:08;;;;;;;;;;;;;;;;;;5176012;28;19918;-56
2024/01/11 03:48:39;;;;;;;;;;;;;;;;;;5174450;28;19926;-56
2024/01/11 03:51:10;;;;;;;;;;;;;;;;;;5180188;28;19945;-55
2024/01/11 03:53:41;;;;;;;;;;;;;;;;;;5176164;28;19929;-56
2024/01/11 03:56:12;;;;;;;;;;;;;;;;;;5177261;28;20056;-56
2024/01/11 03:58:44;;;;;;;;;;;;;;;;;;5145095;28;19922;-56
2024/01/11 04:01:15;;;;;;;;;;;;;;;;;;5163594;28;20385;-57
2024/01/11 04:03:46;;;;;;;;;;;;;;;;;;5180004;28;19929;-57
2024/01/11 04:06:17;;;;;;;;;;;;;;;;;;5179881;28;20368;-57
2024/01/11 04:08:48;;;;;;;;;;;;;;;;;;5175386;28;19980;-57
2024/01/11 04:11:19;;;;;;;;;;;;;;;;;;5172835;28;19922;-57
2024/01/11 04:13:50;;;;;;;;;;;;;;;;;;5155205;28;19921;-56
2024/01/11 04:16:22;;;;;;;;;;;;;;;;;;5169242;28;20024;-56
2024/01/11 04:18:53;;;;;;;;;;;;;;;;;;5143320;28;19922;-57
2024/01/11 04:21:24;;;;;;;;;;;;;;;;;;5149865;28;19980;-56
2024/01/11 04:23:55;;;;;;;;;;;;;;;;;;5179657;28;19922;-57
2024/01/11 04:26:26;;;;;;;;;;;;;;;;;;5179568;28;19929;-56
2024/01/11 04:28:59;;;;;;;;;;;;;;;;;;5179477;28;19936;-57
2024/01/11 04:31:30;;;;;;;;;;;;;;;;;;5167670;28;19926;-56
2024/01/11 04:34:01;;;;;;;;;;;;;;;;;;5143240;28;19926;-57
2024/01/11 04:36:32;;;;;;;;;;;;;;;;;;5159228;28;20253;-58
2024/01/11 04:39:03;;;;;;;;;;;;;;;;;;5149160;28;19932;-57
2024/01/11 04:41:34;;;;;;;;;;;;;;;;;;5167235;28;20281;-56
2024/01/11 04:44:05;;;;;;;;;;;;;;;;;;5159129;28;19922;-56
2024/01/11 04:46:36;;;;;;;;;;;;;;;;;;5142869;28;19969;-56
2024/01/11 04:49:07;;;;;;;;;;;;;;;;;;5159337;28;19973;-55
2024/01/11 04:51:38;;;;;;;;;;;;;;;;;;5158722;28;20008;-57
2024/01/11 04:54:09;;;;;;;;;;;;;;;;;;5158734;28;20456;-57
2024/01/11 04:56:40;;;;;;;;;;;;;;;;;;5158698;28;20021;-57
2024/01/11 04:59:11;;;;;;;;;;;;;;;;;;5158655;28;19973;-56
2024/01/11 05:01:42;;;;;;;;;;;;;;;;;;5161799;28;19928;-58
2024/01/11 05:04:13;;;;;;;;;;;;;;;;;;5178330;28;20016;-56
2024/01/11 05:06:44;;;;;;;;;;;;;;;;;;5178983;28;20008;-57
2024/01/11 05:09:15;;;;;;;;;;;;;;;;;;5175629;28;19932;-57
2024/01/11 05:11:46;;;;;;;;;;;;;;;;;;5177082;28;19922;-56
2024/01/11 05:14:18;;;;;;;;;;;;;;;;;;5177616;28;19928;-56
2024/01/11 05:16:50;;;;;;;;;;;;;;;;;;5177035;28;20027;-57
2024/01/11 05:19:21;;;;;;;;;;;;;;;;;;5176393;28;19956;-57
2024/01/11 05:21:52;;;;;;;;;;;;;;;;;;5164827;28;19922;-58
2024/01/11 05:24:23;;;;;;;;;;;;;;;;;;5165354;28;19926;-55
2024/01/11 05:26:54;;;;;;;;;;;;;;;;;;5168511;28;19933;-56
2024/01/11 05:29:25;;;;;;;;;;;;;;;;;;5125076;28;20301;-56
2024/01/11 05:31:56;;;;;;;;;;;;;;;;;;5158248;28;19928;-58
2024/01/11 05:34:27;;;;;;;;;;;;;;;;;;5115624;28;19930;-58
2024/01/11 05:36:58;;;;;;;;;;;;;;;;;;5177976;28;19959;-59
2024/01/11 05:39:29;;;;;;;;;;;;;;;;;;5178858;28;19922;-59
2024/01/11 05:42:00;;;;;;;;;;;;;;;;;;5168209;28;19930;-59
2024/01/11 05:44:31;;;;;;;;;;;;;;;;;;5164765;28;19929;-59
2024/01/11 05:47:02;;;;;;;;;;;;;;;;;;5171758;28;19926;-58
2024/01/11 05:49:33;;;;;;;;;;;;;;;;;;5170599;28;19938;-56
2024/01/11 05:52:04;;;;;;;;;;;;;;;;;;5166774;28;20053;-56
2024/01/11 05:54:35;;;;;;;;;;;;;;;;;;5174879;28;19922;-56
2024/01/11 05:57:07;;;;;;;;;;;;;;;;;;5178217;28;19923;-55
2024/01/11 05:59:38;;;;;;;;;;;;;;;;;;5177419;28;19922;-56
2024/01/11 06:02:09;;;;;;;;;;;;;;;;;;5177393;28;19984;-56
2024/01/11 06:04:41;;;;;;;;;;;;;;;;;;5177560;28;19930;-56
2024/01/11 06:07:12;;;;;;;;;;;;;;;;;;5177692;28;20286;-56
2024/01/11 06:09:43;;;;;;;;;;;;;;;;;;5160978;28;19926;-55
2024/01/11 06:12:14;;;;;;;;;;;;;;;;;;5128144;28;19977;-56
2024/01/11 06:14:45;;;;;;;;;;;;;;;;;;5128904;28;19933;-56
2024/01/11 06:17:16;;;;;;;;;;;;;;;;;;5129254;28;20285;-57
2024/01/11 06:19:47;;;;;;;;;;;;;;;;;;5146366;28;19922;-58
2024/01/11 06:22:18;;;;;;;;;;;;;;;;;;5112909;28;19941;-57
2024/01/11 06:24:49;;;;;;;;;;;;;;;;;;5128758;28;20385;-56
2024/01/11 06:27:20;;;;;;;;;;;;;;;;;;5128643;28;19926;-56
2024/01/11 06:29:51;;;;;;;;;;;;;;;;;;5128633;28;19926;-56
2024/01/11 06:32:22;;;;;;;;;;;;;;;;;;5128915;28;19922;-55
2024/01/11 06:34:53;;;;;;;;;;;;;;;;;;5128664;28;20022;-56
2024/01/11 06:37:24;;;;;;;;;;;;;;;;;;5128768;28;19922;-57
2024/01/11 06:39:55;;;;;;;;;;;;;;;;;;5128536;28;19922;-59
2024/01/11 06:42:26;;;;;;;;;;;;;;;;;;5112550;28;19953;-57
2024/01/11 06:44:57;;;;;;;;;;;;;;;;;;5128532;28;20031;-56
2024/01/11 06:47:28;;;;;;;;;;;;;;;;;;5124078;28;19933;-56
2024/01/11 06:49:59;;;;;;;;;;;;;;;;;;5160704;28;19937;-58
2024/01/11 06:52:30;;;;;;;;;;;;;;;;;;5160537;28;20273;-57
2024/01/11 06:55:02;;;;;;;;;;;;;;;;;;5160843;28;19969;-56
2024/01/11 06:57:33;;;;;;;;;;;;;;;;;;5160924;28;20381;-57
2024/01/11 07:00:04;;;;;;;;;;;;;;;;;;5144426;28;19976;-57
2024/01/11 07:02:35;;;;;;;;;;;;;;;;;;5144139;28;19921;-56
2024/01/11 07:05:06;;;;;;;;;;;;;;;;;;5160563;28;20420;-56
2024/01/11 07:07:37;;;;;;;;;;;;;;;;;;5160369;28;19933;-57
2024/01/11 07:10:08;;;;;;;;;;;;;;;;;;5160172;28;19938;-57
2024/01/11 07:12:41;;;;;;;;;;;;;;;;;;5144404;28;20293;-57
2024/01/11 07:15:12;;;;;;;;;;;;;;;;;;5160165;28;19933;-56
2024/01/11 07:17:43;;;;;;;;;;;;;;;;;;5160148;28;19953;-57
2024/01/11 07:20:16;;;;;;;;;;;;;;;;;;5154097;28;19922;-56
2024/01/11 07:22:47;;;;;;;;;;;;;;;;;;5141177;28;19930;-56
2024/01/11 07:25:18;;;;;;;;;;;;;;;;;;5143675;28;19930;-56
2024/01/11 07:27:49;;;;;;;;;;;;;;;;;;5143801;28;19926;-57
2024/01/11 07:30:20;;;;;;;;;;;;;;;;;;5143561;28;19930;-57
2024/01/11 07:32:51;;;;;;;;;;;;;;;;;;5159794;28;19922;-57
2024/01/11 07:35:22;;;;;;;;;;;;;;;;;;5159733;28;19929;-57
2024/01/11 07:37:54;;;;;;;;;;;;;;;;;;5143575;28;20246;-57
2024/01/11 07:40:25;;;;;;;;;;;;;;;;;;5160014;28;20334;-57
2024/01/11 07:42:56;;;;;;;;;;;;;;;;;;5159817;28;19980;-57
2024/01/11 07:45:27;;;;;;;;;;;;;;;;;;5159698;28;20312;-57
2024/01/11 07:47:58;;;;;;;;;;;;;;;;;;5160005;28;19921;-58
2024/01/11 07:50:29;;;;;;;;;;;;;;;;;;5143176;28;20008;-58
2024/01/11 07:53:01;;;;;;;;;;;;;;;;;;5159233;28;20016;-58
2024/01/11 07:55:32;;;;;;;;;;;;;;;;;;5158984;28;20086;-58
2024/01/11 07:58:03;;;;;;;;;;;;;;;;;;5159246;28;19922;-57
2024/01/11 08:00:34;;;;;;;;;;;;;;;;;;5159355;28;19918;-57
2024/01/11 08:03:05;;;;;;;;;;;;;;;;;;5159311;28;19977;-56
2024/01/11 08:05:36;;;;;;;;;;;;;;;;;;5159067;28;20020;-57
2024/01/11 08:08:07;;;;;;;;;;;;;;;;;;5159267;28;20017;-57
2024/01/11 08:10:38;;;;;;;;;;;;;;;;;;5159198;28;19929;-58
2024/01/11 08:13:09;;;;;;;;;;;;;;;;;;5149037;28;19930;-55
2024/01/11 08:15:40;;;;;;;;;;;;;;;;;;5139802;28;19926;-56
2024/01/11 08:18:12;;;;;;;;;;;;;;;;;;5159030;28;20020;-56
2024/01/11 08:20:43;;;;;;;;;;;;;;;;;;5159067;28;20696;-58
2024/01/11 08:23:14;;;;;;;;;;;;;;;;;;5159316;28;20013;-57
2024/01/11 08:25:45;;;;;;;;;;;;;;;;;;5159870;28;20258;-56
2024/01/11 08:28:16;;;;;;;;;;;;;;;;;;5159393;28;19949;-56
2024/01/11 08:30:47;;;;;;;;;;;;;;;;;;5158999;28;19928;-56
2024/01/11 08:33:18;;;;;;;;;;;;;;;;;;5158783;28;19922;-57
2024/01/11 08:35:49;;;;;;;;;;;;;;;;;;5158230;28;19919;-56
2024/01/11 08:38:20;;;;;;;;;;;;;;;;;;5158675;28;19926;-56
2024/01/11 08:40:51;;;;;;;;;;;;;;;;;;5158504;28;19926;-57
2024/01/11 08:43:22;;;;;;;;;;;;;;;;;;5158557;28;19929;-57
2024/01/11 08:45:54;;;;;;;;;;;;;;;;;;5158522;28;20342;-56
2024/01/11 08:48:25;;;;;;;;;;;;;;;;;;5158263;28;19953;-58
2024/01/11 08:50:56;;;;;;;;;;;;;;;;;;5126125;28;19922;-57
2024/01/11 08:53:27;;;;;;;;;;;;;;;;;;5126305;28;20362;-58
2024/01/11 08:55:58;;;;;;;;;;;;;;;;;;5125832;28;19977;-57
2024/01/11 08:58:29;;;;;;;;;;;;;;;;;;5125863;28;19992;-57
2024/01/11 09:01:00;;;;;;;;;;;;;;;;;;5126394;28;19976;-57
2024/01/11 09:03:31;;;;;;;;;;;;;;;;;;5125878;28;19922;-58
2024/01/11 09:06:02;;;;;;;;;;;;;;;;;;5126084;28;19922;-57
2024/01/11 09:08:33;;;;;;;;;;;;;;;;;;5125743;28;19930;-57
2024/01/11 09:11:04;;;;;;;;;;;;;;;;;;5110044;28;19997;-58
2024/01/11 09:13:35;;;;;;;;;;;;;;;;;;5125918;28;19934;-58
2024/01/11 09:16:06;;;;;;;;;;;;;;;;;;5125705;28;19945;-58
2024/01/11 09:18:37;;;;;;;;;;;;;;;;;;5141015;28;19938;-59
2024/01/11 09:21:08;;;;;;;;;;;;;;;;;;5173862;28;20404;-58
2024/01/11 09:23:39;;;;;;;;;;;;;;;;;;5174521;28;19933;-59
2024/01/11 09:26:10;;;;;;;;;;;;;;;;;;5158530;28;19947;-58
2024/01/11 09:28:41;;;;;;;;;;;;;;;;;;5154877;28;19989;-58
2024/01/11 09:31:12;;;;;;;;;;;;;;;;;;5157717;28;19925;-58
2024/01/11 09:33:45;;;;;;;;;;;;;;;;;;5157600;28;19926;-58
2024/01/11 09:36:16;;;;;;;;;;;;;;;;;;5157619;28;19996;-59
2024/01/11 09:38:48;;;;;;;;;;;;;;;;;;5157627;28;19930;-58
2024/01/11 09:41:19;;;;;;;;;;;;;;;;;;5157258;28;19926;-59
2024/01/11 09:43:50;;;;;;;;;;;;;;;;;;5157458;28;19929;-59
2024/01/11 09:46:21;;;;;;;;;;;;;;;;;;5157561;28;19922;-57
2024/01/11 09:48:52;;;;;;;;;;;;;;;;;;5157200;28;19926;-59
2024/01/11 09:51:23;;;;;;;;;;;;;;;;;;5157485;28;19922;-58
2024/01/11 09:53:54;;;;;;;;;;;;;;;;;;5125354;28;19930;-59
2024/01/11 09:56:25;;;;;;;;;;;;;;;;;;5156292;28;19933;-58
2024/01/11 09:58:56;;;;;;;;;;;;;;;;;;5155958;28;19926;-60
2024/01/11 10:01:27;;;;;;;;;;;;;;;;;;5156713;28;19948;-60
2024/01/11 10:03:58;;;;;;;;;;;;;;;;;;5156968;28;20451;-60
2024/01/11 10:06:29;;;;;;;;;;;;;;;;;;5157562;28;19992;-60
2024/01/11 10:09:00;;;;;;;;;;;;;;;;;;5157178;28;19937;-60
2024/01/11 10:11:33;;;;;;;;;;;;;;;;;;5157080;28;20009;-60
2024/01/11 10:14:05;;;;;;;;;;;;;;;;;;5157197;28;19923;-59
2024/01/11 10:16:36;;;;;;;;;;;;;;;;;;5156983;28;19937;-59
2024/01/11 10:19:07;;;;;;;;;;;;;;;;;;5157248;28;19929;-60
2024/01/11 10:21:41;;;;;;;;;;;;;;;;;;5157483;28;20283;-59
2024/01/11 10:24:12;;;;;;;;;;;;;;;;;;5157246;28;20073;-60
2024/01/11 10:26:43;;;;;;;;;;;;;;;;;;5157190;28;20429;-59
2024/01/11 10:29:14;;;;;;;;;;;;;;;;;;5157166;28;19926;-59
2024/01/11 10:31:45;;;;;;;;;;;;;;;;;;5157548;28;20335;-60
2024/01/11 10:34:16;;;;;;;;;;;;;;;;;;5157155;28;19981;-60
2024/01/11 10:36:47;;;;;;;;;;;;;;;;;;5157090;28;19926;-59
2024/01/11 10:39:18;;;;;;;;;;;;;;;;;;5157405;28;19922;-59
2024/01/11 10:41:49;;;;;;;;;;;;;;;;;;5157475;28;19930;-59
2024/01/11 10:44:21;;;;;;;;;;;;;;;;;;5157036;28;19930;-58
2024/01/11 10:46:52;;;;;;;;;;;;;;;;;;5156920;28;19928;-59
2024/01/11 10:49:23;;;;;;;;;;;;;;;;;;5156990;28;20388;-60
2024/01/11 10:51:54;;;;;;;;;;;;;;;;;;5153878;28;20621;-60
2024/01/11 10:54:25;;;;;;;;;;;;;;;;;;5151381;28;19923;-60
2024/01/11 10:56:56;;;;;;;;;;;;;;;;;;5155818;28;20006;-58
2024/01/11 10:59:27;;;;;;;;;;;;;;;;;;5159661;28;20015;-59
2024/01/11 11:01:59;;;;;;;;;;;;;;;;;;5160101;28;19941;-59
2024/01/11 11:04:30;;;;;;;;;;;;;;;;;;5160072;28;19957;-59
2024/01/11 11:07:01;;;;;;;;;;;;;;;;;;5161362;28;19969;-60
2024/01/11 11:09:32;;;;;;;;;;;;;;;;;;5160958;28;20005;-60
2024/01/11 11:12:03;;;;;;;;;;;;;;;;;;5177732;28;19928;-60
2024/01/11 11:14:34;;;;;;;;;;;;;;;;;;5161314;28;20053;-62
2024/01/11 11:17:05;;;;;;;;;;;;;;;;;;5154779;28;19946;-61
2024/01/11 11:19:36;;;;;;;;;;;;;;;;;;5160803;28;19926;-60
2024/01/11 11:22:07;;;;;;;;;;;;;;;;;;5161236;28;20404;-61
2024/01/11 11:24:38;;;;;;;;;;;;;;;;;;5160754;28;19930;-61
2024/01/11 11:27:09;;;;;;;;;;;;;;;;;;5160599;28;19930;-60
2024/01/11 11:29:40;;;;;;;;;;;;;;;;;;5160292;28;19930;-60
2024/01/11 11:32:11;;;;;;;;;;;;;;;;;;5160668;28;19923;-62
2024/01/11 11:34:44;;;;;;;;;;;;;;;;;;5157057;28;19922;-59
2024/01/11 11:37:15;;;;;;;;;;;;;;;;;;5160408;28;19938;-60
2024/01/11 11:39:46;;;;;;;;;;;;;;;;;;5160679;28;19922;-60
2024/01/11 11:42:17;;;;;;;;;;;;;;;;;;5160434;28;20411;-62
2024/01/11 11:44:49;;;;;;;;;;;;;;;;;;5160315;28;19926;-59
2024/01/11 11:47:21;;;;;;;;;;;;;;;;;;5160143;28;19996;-59
2024/01/11 11:49:52;;;;;;;;;;;;;;;;;;5124142;28;20309;-60
2024/01/11 11:52:23;;;;;;;;;;;;;;;;;;5159749;28;19930;-58
2024/01/11 11:54:54;;;;;;;;;;;;;;;;;;5159602;28;20062;-58
2024/01/11 11:57:25;;;;;;;;;;;;;;;;;;5159953;28;19989;-59
2024/01/11 11:59:56;;;;;;;;;;;;;;;;;;5160166;28;20037;-58
2024/01/11 12:02:27;;;;;;;;;;;;;;;;;;5160143;28;19921;-59
2024/01/11 12:04:58;;;;;;;;;;;;;;;;;;5127759;28;19986;-58
2024/01/11 12:07:29;;;;;;;;;;;;;;;;;;5159686;28;19930;-59
2024/01/11 12:10:00;;;;;;;;;;;;;;;;;;5159812;28;19930;-60
2024/01/11 12:12:31;;;;;;;;;;;;;;;;;;5160008;28;20274;-59
2024/01/11 12:15:02;;;;;;;;;;;;;;;;;;5159921;28;19926;-59
2024/01/11 12:17:33;;;;;;;;;;;;;;;;;;5156262;28;19977;-58
2024/01/11 12:20:06;;;;;;;;;;;;;;;;;;5159745;28;19922;-58
2024/01/11 12:22:38;;;;;;;;;;;;;;;;;;5160086;28;19922;-59
2024/01/11 12:25:09;;;;;;;;;;;;;;;;;;5158687;28;19977;-58
2024/01/11 12:27:40;;;;;;;;;;;;;;;;;;5121174;28;20779;-58
2024/01/11 12:30:14;;;;;;;;;;;;;;;;;;5159265;28;19929;-58
2024/01/11 12:32:45;;;;;;;;;;;;;;;;;;5159248;28;19988;-57
2024/01/11 12:35:16;;;;;;;;;;;;;;;;;;5159579;28;19988;-59
2024/01/11 12:37:47;;;;;;;;;;;;;;;;;;5158860;28;19922;-58
2024/01/11 12:40:18;;;;;;;;;;;;;;;;;;5158827;28;20438;-58
2024/01/11 12:42:49;;;;;;;;;;;;;;;;;;5109686;28;19926;-61
2024/01/11 12:45:20;;;;;;;;;;;;;;;;;;5121510;28;20368;-61
2024/01/11 12:47:51;;;;;;;;;;;;;;;;;;5126692;28;19926;-61
2024/01/11 12:50:22;;;;;;;;;;;;;;;;;;5154517;28;20440;-59
2024/01/11 12:52:53;;;;;;;;;;;;;;;;;;5141212;28;19922;-59
2024/01/11 12:55:24;;;;;;;;;;;;;;;;;;5142688;28;20313;-59
2024/01/11 12:57:55;;;;;;;;;;;;;;;;;;5142444;28;19929;-57
2024/01/11 13:00:26;;;;;;;;;;;;;;;;;;5110675;28;19922;-59
2024/01/11 13:02:57;;;;;;;;;;;;;;;;;;5158737;28;19922;-59
2024/01/11 13:05:29;;;;;;;;;;;;;;;;;;5158680;28;19925;-58
2024/01/11 13:08:01;;;;;;;;;;;;;;;;;;5142830;28;20005;-57
2024/01/11 13:10:32;;;;;;;;;;;;;;;;;;5122593;29;19934;-58
2024/01/11 13:13:03;;;;;;;;;;;;;;;;;;5138465;28;20163;-60
2024/01/11 13:15:36;;;;;;;;;;;;;;;;;;5138739;28;19931;-58
2024/01/11 13:18:07;;;;;;;;;;;;;;;;;;5152158;28;19922;-57
2024/01/11 13:20:38;;;;;;;;;;;;;;;;;;5157977;28;20290;-60
2024/01/11 13:23:09;;;;;;;;;;;;;;;;;;5158737;28;19976;-58
2024/01/11 13:25:40;;;;;;;;;;;;;;;;;;5158740;28;19922;-57
2024/01/11 13:28:11;;;;;;;;;;;;;;;;;;5158614;28;20424;-58
2024/01/11 13:30:42;;;;;;;;;;;;;;;;;;5142602;28;20254;-58
2024/01/11 13:33:16;;;;;;;;;;;;;;;;;;5110358;28;20049;-58
2024/01/11 13:35:47;;;;;;;;;;;;;;;;;;5158503;28;19922;-58
2024/01/11 13:38:18;;;;;;;;;;;;;;;;;;5158277;28;20004;-58
2024/01/11 13:40:49;;;;;;;;;;;;;;;;;;5110334;28;19922;-59
2024/01/11 13:43:20;;;;;;;;;;;;;;;;;;5158173;28;20485;-58
2024/01/11 13:45:51;;;;;;;;;;;;;;;;;;5125903;28;19929;-58
2024/01/11 13:48:22;;;;;;;;;;;;;;;;;;5158102;28;19922;-61
2024/01/11 13:50:53;;;;;;;;;;;;;;;;;;5157854;28;19933;-60
2024/01/11 13:53:24;;;;;;;;;;;;;;;;;;5157594;28;20354;-61
2024/01/11 13:55:55;;;;;;;;;;;;;;;;;;5158356;28;19922;-61
2024/01/11 13:58:26;;;;;;;;;;;;;;;;;;5154573;28;19992;-60
2024/01/11 14:00:57;;;;;;;;;;;;;;;;;;5139943;28;20336;-59
2024/01/11 14:03:28;;;;;;;;;;;;;;;;;;5109626;28;20009;-60
2024/01/11 14:06:00;;;;;;;;;;;;;;;;;;5125694;28;19929;-60
2024/01/11 14:08:31;;;;;;;;;;;;;;;;;;5141421;28;19953;-60
2024/01/11 14:11:02;;;;;;;;;;;;;;;;;;5125780;28;20411;-61
2024/01/11 14:13:33;;;;;;;;;;;;;;;;;;5125765;28;19956;-60
2024/01/11 14:16:05;;;;;;;;;;;;;;;;;;5158019;28;19922;-60
2024/01/11 14:18:36;;;;;;;;;;;;;;;;;;5141956;28;19926;-60
2024/01/11 14:21:07;;;;;;;;;;;;;;;;;;5125221;28;19922;-60
2024/01/11 14:23:38;;;;;;;;;;;;;;;;;;5158259;28;19985;-60
2024/01/11 14:26:09;;;;;;;;;;;;;;;;;;5161349;28;20357;-57
2024/01/11 14:28:42;;;;;;;;;;;;;;;;;;5108416;28;19934;-59
2024/01/11 14:31:13;;;;;;;;;;;;;;;;;;5122275;28;19969;-59
2024/01/11 14:33:44;;;;;;;;;;;;;;;;;;5172468;28;19922;-59
2024/01/11 14:36:15;;;;;;;;;;;;;;;;;;5180243;28;19972;-59
2024/01/11 14:38:46;;;;;;;;;;;;;;;;;;5182036;28;19925;-60
2024/01/11 14:41:17;;;;;;;;;;;;;;;;;;5162917;28;20381;-61
2024/01/11 14:43:48;;;;;;;;;;;;;;;;;;5159433;28;19977;-61
2024/01/11 14:46:19;;;;;;;;;;;;;;;;;;5137533;28;20613;-59
2024/01/11 14:48:50;;;;;;;;;;;;;;;;;;5177920;28;19934;-58
2024/01/11 14:51:21;;;;;;;;;;;;;;;;;;5157656;28;19926;-57
2024/01/11 14:53:52;;;;;;;;;;;;;;;;;;5158021;28;19955;-59
2024/01/11 14:56:23;;;;;;;;;;;;;;;;;;5162287;28;19927;-58
2024/01/11 14:58:54;;;;;;;;;;;;;;;;;;5159758;28;20425;-58
2024/01/11 15:01:25;;;;;;;;;;;;;;;;;;5159037;28;20017;-58
2024/01/11 15:03:56;;;;;;;;;;;;;;;;;;5160496;28;19922;-58
2024/01/11 15:06:28;;;;;;;;;;;;;;;;;;5160752;28;19922;-59
2024/01/11 15:08:59;;;;;;;;;;;;;;;;;;5144583;28;19926;-58
2024/01/11 15:11:35;;;;;;;;;;;;;;;;;;5128677;28;19932;-58
2024/01/11 15:14:06;;;;;;;;;;;;;;;;;;5160829;28;20041;-58
2024/01/11 15:16:37;;;;;;;;;;;;;;;;;;5160766;28;19997;-58
2024/01/11 15:19:09;;;;;;;;;;;;;;;;;;5160555;28;19957;-59
2024/01/11 15:21:40;;;;;;;;;;;;;;;;;;5160679;28;19940;-59
2024/01/11 15:24:11;;;;;;;;;;;;;;;;;;5161109;28;20012;-59
2024/01/11 15:26:42;;;;;;;;;;;;;;;;;;5160711;28;19926;-57
2024/01/11 15:29:13;;;;;;;;;;;;;;;;;;5160881;28;20279;-59
2024/01/11 15:31:49;;;;;;;;;;;;;;;;;;5160643;28;19929;-58
2024/01/11 15:34:20;;;;;;;;;;;;;;;;;;5160517;28;19922;-58
2024/01/11 15:36:51;;;;;;;;;;;;;;;;;;5160785;28;20266;-58
2024/01/11 15:39:22;;;;;;;;;;;;;;;;;;5160102;28;19972;-58
2024/01/11 15:41:53;;;;;;;;;;;;;;;;;;5128320;28;19973;-58
2024/01/11 15:44:26;;;;;;;;;;;;;;;;;;5160071;28;19926;-57
2024/01/11 15:46:57;;;;;;;;;;;;;;;;;;5145570;28;19922;-58
2024/01/11 15:49:28;;;;;;;;;;;;;;;;;;5160274;28;20448;-58
2024/01/11 15:51:59;;;;;;;;;;;;;;;;;;5160153;28;20277;-58
2024/01/11 15:54:30;;;;;;;;;;;;;;;;;;5160354;28;19926;-59
2024/01/11 15:57:01;;;;;;;;;;;;;;;;;;5160276;28;20029;-60
2024/01/11 15:59:32;;;;;;;;;;;;;;;;;;5151082;28;19930;-59
2024/01/11 16:02:04;;;;;;;;;;;;;;;;;;5155623;28;19929;-58
2024/01/11 16:04:35;;;;;;;;;;;;;;;;;;5147649;28;19938;-58
2024/01/11 16:07:06;;;;;;;;;;;;;;;;;;5159001;28;19937;-58
2024/01/11 16:09:37;;;;;;;;;;;;;;;;;;5126999;28;19930;-58
2024/01/11 16:12:08;;;;;;;;;;;;;;;;;;5157159;28;19975;-59
2024/01/11 16:14:39;;;;;;;;;;;;;;;;;;5153237;28;19923;-61
2024/01/11 16:17:10;;;;;;;;;;;;;;;;;;5159293;28;19922;-59
2024/01/11 16:19:41;;;;;;;;;;;;;;;;;;5159087;28;20357;-60
2024/01/11 16:22:12;;;;;;;;;;;;;;;;;;5159516;28;19922;-58
2024/01/11 16:24:43;;;;;;;;;;;;;;;;;;5159359;28;19922;-59
2024/01/11 16:27:14;;;;;;;;;;;;;;;;;;5159068;28;19926;-59
2024/01/11 16:29:45;;;;;;;;;;;;;;;;;;5159262;28;20083;-60
2024/01/11 16:32:17;;;;;;;;;;;;;;;;;;5159300;28;20562;-59
2024/01/11 16:34:48;;;;;;;;;;;;;;;;;;5158671;28;19930;-57
2024/01/11 16:37:20;;;;;;;;;;;;;;;;;;5158657;28;19922;-60
2024/01/11 16:39:51;;;;;;;;;;;;;;;;;;5158958;28;19948;-59
2024/01/11 16:42:24;;;;;;;;;;;;;;;;;;5159222;28;19922;-59
2024/01/11 16:44:55;;;;;;;;;;;;;;;;;;5158947;28;19989;-59
2024/01/11 16:47:26;;;;;;;;;;;;;;;;;;5159000;28;19966;-59
2024/01/11 16:49:57;;;;;;;;;;;;;;;;;;5158922;28;20005;-58
2024/01/11 16:52:28;;;;;;;;;;;;;;;;;;5149153;28;19945;-61
2024/01/11 16:55:10;;;;;;;;;;;;;;;;;;5141594;28;20258;-60
2024/01/11 16:57:41;;;;;;;;;;;;;;;;;;5158486;28;20324;-61
2024/01/11 17:00:12;;;;;;;;;;;;;;;;;;5158598;28;19922;-61
2024/01/11 17:02:43;;;;;;;;;;;;;;;;;;5158741;28;19961;-61
2024/01/11 17:05:14;;;;;;;;;;;;;;;;;;5158901;28;20337;-61
2024/01/11 17:07:45;;;;;;;;;;;;;;;;;;5158844;28;19922;-61
2024/01/11 17:10:16;;;;;;;;;;;;;;;;;;5154434;28;20389;-61
2024/01/11 17:12:47;;;;;;;;;;;;;;;;;;5157427;28;19957;-61